sensor_id;sensor_type;location;lat;lon;timestamp;pressure;altitude;pressure_sealevel;temperature;humidity
76285;BME280;65096;50.998;7.098;2023-04-29T00:00:45;100702.47;;;12.46;64.03
76285;BME280;65096;50.998;7.098;2023-04-29T00:03:13;100698.19;;;12.38;64.23
76285;BME280;65096;50.998;7.098;2023-04-29T00:05:40;100696.44;;;12.41;64.08
76285;BME280;65096;50.998;7.098;2023-04-29T00:08:07;100697.31;;;12.39;64.46
76285;BME280;65096;50.998;7.098;2023-04-29T00:10:33;100698.16;;;12.42;64.24
76285;BME280;65096;50.998;7.098;2023-04-29T00:13:00;100678.34;;;12.38;63.48
76285;BME280;65096;50.998;7.098;2023-04-29T00:15:27;100683.50;;;12.37;63.25
76285;BME280;65096;50.998;7.098;2023-04-29T00:17:54;100690.44;;;12.36;63.78
76285;BME280;65096;50.998;7.098;2023-04-29T00:20:22;100694.72;;;12.18;62.88
76285;BME280;65096;50.998;7.098;2023-04-29T00:22:48;100687.84;;;12.18;63.38
76285;BME280;65096;50.998;7.098;2023-04-29T00:25:15;100691.31;;;12.20;63.25
76285;BME280;65096;50.998;7.098;2023-04-29T00:27:42;100693.00;;;12.20;62.91
76285;BME280;65096;50.998;7.098;2023-04-29T00:30:09;100688.72;;;12.20;63.13
76285;BME280;65096;50.998;7.098;2023-04-29T00:32:36;100692.16;;;12.19;62.55
76285;BME280;65096;50.998;7.098;2023-04-29T00:35:03;100703.34;;;12.20;62.59
76285;BME280;65096;50.998;7.098;2023-04-29T00:37:31;100702.47;;;12.21;62.42
76285;BME280;65096;50.998;7.098;2023-04-29T00:39:58;100704.22;;;12.23;62.21
76285;BME280;65096;50.998;7.098;2023-04-29T00:42:26;100704.22;;;12.22;61.88
76285;BME280;65096;50.998;7.098;2023-04-29T00:44:55;100707.66;;;12.22;61.07
76285;BME280;65096;50.998;7.098;2023-04-29T00:47:22;100705.06;;;12.19;61.91
76285;BME280;65096;50.998;7.098;2023-04-29T00:49:48;100718.88;;;12.17;61.95
76285;BME280;65096;50.998;7.098;2023-04-29T00:52:16;100715.41;;;12.15;62.44
76285;BME280;65096;50.998;7.098;2023-04-29T00:54:44;100716.28;;;12.11;62.25
76285;BME280;65096;50.998;7.098;2023-04-29T00:57:11;100716.28;;;12.04;62.63
76285;BME280;65096;50.998;7.098;2023-04-29T00:59:37;100723.16;;;11.99;62.69
76285;BME280;65096;50.998;7.098;2023-04-29T01:02:04;100724.03;;;11.92;62.24
76285;BME280;65096;50.998;7.098;2023-04-29T01:04:31;100727.44;;;11.91;61.42
76285;BME280;65096;50.998;7.098;2023-04-29T01:07:14;100731.78;;;11.89;61.75
76285;BME280;65096;50.998;7.098;2023-04-29T01:09:49;100733.50;;;11.84;62.14
76285;BME280;65096;50.998;7.098;2023-04-29T01:12:20;100734.34;;;11.82;62.35
76285;BME280;65096;50.998;7.098;2023-04-29T01:15:02;100733.50;;;11.84;62.60
76285;BME280;65096;50.998;7.098;2023-04-29T01:17:35;100738.66;;;11.86;61.99
76285;BME280;65096;50.998;7.098;2023-04-29T01:20:03;100740.38;;;11.81;62.18
76285;BME280;65096;50.998;7.098;2023-04-29T01:22:32;100730.88;;;11.68;62.45
76285;BME280;65096;50.998;7.098;2023-04-29T01:25:00;100736.91;;;11.65;63.07
76285;BME280;65096;50.998;7.098;2023-04-29T01:27:29;100718.78;;;11.59;62.94
76285;BME280;65096;50.998;7.098;2023-04-29T01:30:01;100741.25;;;11.77;62.61
76285;BME280;65096;50.998;7.098;2023-04-29T01:32:39;100749.00;;;11.77;62.58
76285;BME280;65096;50.998;7.098;2023-04-29T01:35:14;100701.56;;;11.54;62.77
76285;BME280;65096;50.998;7.098;2023-04-29T01:37:49;100734.31;;;11.67;62.30
76285;BME280;65096;50.998;7.098;2023-04-29T01:40:24;100746.41;;;11.78;62.39
76285;BME280;65096;50.998;7.098;2023-04-29T01:42:57;100734.28;;;11.56;62.17
76285;BME280;65096;50.998;7.098;2023-04-29T01:45:26;100750.66;;;11.63;62.94
76285;BME280;65096;50.998;7.098;2023-04-29T01:47:54;100757.53;;;11.58;62.86
76285;BME280;65096;50.998;7.098;2023-04-29T01:50:21;100746.34;;;11.51;62.75
76285;BME280;65096;50.998;7.098;2023-04-29T01:52:47;100754.94;;;11.56;62.26
76285;BME280;65096;50.998;7.098;2023-04-29T01:55:14;100762.63;;;11.46;62.89
76285;BME280;65096;50.998;7.098;2023-04-29T01:57:42;100754.88;;;11.40;62.89
76285;BME280;65096;50.998;7.098;2023-04-29T02:00:10;100766.03;;;11.34;63.21
76285;BME280;65096;50.998;7.098;2023-04-29T02:02:37;100766.81;;;11.24;63.47
76285;BME280;65096;50.998;7.098;2023-04-29T02:05:04;100773.72;;;11.22;63.66
76285;BME280;65096;50.998;7.098;2023-04-29T02:07:31;100776.19;;;11.03;63.95
76285;BME280;65096;50.998;7.098;2023-04-29T02:09:58;100773.66;;;11.10;63.73
76285;BME280;65096;50.998;7.098;2023-04-29T02:12:25;100767.69;;;11.19;63.75
76285;BME280;65096;50.998;7.098;2023-04-29T02:14:54;100770.28;;;11.23;63.54
76285;BME280;65096;50.998;7.098;2023-04-29T02:17:21;100772.84;;;11.19;64.30
76285;BME280;65096;50.998;7.098;2023-04-29T02:19:47;100769.41;;;11.23;64.01
76285;BME280;65096;50.998;7.098;2023-04-29T02:22:14;100777.16;;;11.24;63.87
76285;BME280;65096;50.998;7.098;2023-04-29T02:24:41;100758.22;;;11.21;63.86
76285;BME280;65096;50.998;7.098;2023-04-29T02:27:07;100782.38;;;11.38;63.35
76285;BME280;65096;50.998;7.098;2023-04-29T02:29:34;100783.22;;;11.34;63.44
76285;BME280;65096;50.998;7.098;2023-04-29T02:32:02;100781.50;;;11.30;63.10
76285;BME280;65096;50.998;7.098;2023-04-29T02:34:29;100785.78;;;11.26;63.73
76285;BME280;65096;50.998;7.098;2023-04-29T02:36:56;100789.25;;;11.30;63.24
76285;BME280;65096;50.998;7.098;2023-04-29T02:39:23;100794.41;;;11.33;63.21
76285;BME280;65096;50.998;7.098;2023-04-29T02:41:53;100799.56;;;11.31;63.46
76285;BME280;65096;50.998;7.098;2023-04-29T02:44:19;100800.44;;;11.30;63.46
76285;BME280;65096;50.998;7.098;2023-04-29T02:46:46;100803.03;;;11.32;63.53
76285;BME280;65096;50.998;7.098;2023-04-29T02:49:14;100802.16;;;11.33;63.58
76285;BME280;65096;50.998;7.098;2023-04-29T02:51:41;100796.97;;;11.27;63.73
76285;BME280;65096;50.998;7.098;2023-04-29T02:54:07;100802.13;;;11.22;63.71
76285;BME280;65096;50.998;7.098;2023-04-29T02:56:35;100801.19;;;11.10;64.61
76285;BME280;65096;50.998;7.098;2023-04-29T02:59:02;100809.81;;;11.16;64.06
76285;BME280;65096;50.998;7.098;2023-04-29T03:01:30;100806.41;;;11.19;63.79
76285;BME280;65096;50.998;7.098;2023-04-29T03:03:57;100805.53;;;11.18;63.73
76285;BME280;65096;50.998;7.098;2023-04-29T03:06:25;100808.06;;;11.08;64.55
76285;BME280;65096;50.998;7.098;2023-04-29T03:08:52;100805.50;;;11.11;64.22
76285;BME280;65096;50.998;7.098;2023-04-29T03:11:18;100808.94;;;11.10;64.10
76285;BME280;65096;50.998;7.098;2023-04-29T03:13:47;100812.34;;;11.09;64.59
76285;BME280;65096;50.998;7.098;2023-04-29T03:16:14;100812.28;;;10.97;64.85
76285;BME280;65096;50.998;7.098;2023-04-29T03:18:41;100820.88;;;11.00;64.76
76285;BME280;65096;50.998;7.098;2023-04-29T03:21:07;100816.59;;;10.98;64.80
76285;BME280;65096;50.998;7.098;2023-04-29T03:23:35;100819.16;;;10.98;64.86
76285;BME280;65096;50.998;7.098;2023-04-29T03:26:03;100819.13;;;10.87;65.19
76285;BME280;65096;50.998;7.098;2023-04-29T03:28:30;100822.53;;;10.89;64.68
76285;BME280;65096;50.998;7.098;2023-04-29T03:30:57;100825.13;;;10.89;64.88
76285;BME280;65096;50.998;7.098;2023-04-29T03:33:24;100829.44;;;10.89;64.69
76285;BME280;65096;50.998;7.098;2023-04-29T03:35:51;100825.88;;;10.75;65.50
76285;BME280;65096;50.998;7.098;2023-04-29T03:38:18;100832.63;;;10.59;66.05
76285;BME280;65096;50.998;7.098;2023-04-29T03:40:46;100833.50;;;10.56;66.25
76285;BME280;65096;50.998;7.098;2023-04-29T03:43:13;100835.03;;;10.38;66.15
76285;BME280;65096;50.998;7.098;2023-04-29T03:45:39;100837.63;;;10.39;66.23
76285;BME280;65096;50.998;7.098;2023-04-29T03:48:06;100833.34;;;10.43;65.74
76285;BME280;65096;50.998;7.098;2023-04-29T03:50:34;100839.41;;;10.46;65.56
76285;BME280;65096;50.998;7.098;2023-04-29T03:53:00;100848.03;;;10.48;65.22
76285;BME280;65096;50.998;7.098;2023-04-29T03:55:27;100845.50;;;10.54;65.93
76285;BME280;65096;50.998;7.098;2023-04-29T03:57:57;100847.09;;;10.42;65.84
76285;BME280;65096;50.998;7.098;2023-04-29T04:00:24;100841.13;;;10.47;65.39
76285;BME280;65096;50.998;7.098;2023-04-29T04:02:50;100852.28;;;10.45;65.23
76285;BME280;65096;50.998;7.098;2023-04-29T04:05:17;100855.72;;;10.42;65.39
76285;BME280;65096;50.998;7.098;2023-04-29T04:07:45;100858.22;;;10.39;65.89
76285;BME280;65096;50.998;7.098;2023-04-29T04:10:12;100865.81;;;10.26;65.53
76285;BME280;65096;50.998;7.098;2023-04-29T04:12:39;100864.13;;;10.28;65.31
76285;BME280;65096;50.998;7.098;2023-04-29T04:15:08;100864.13;;;10.28;65.87
76285;BME280;65096;50.998;7.098;2023-04-29T04:17:34;100852.00;;;10.18;65.41
76285;BME280;65096;50.998;7.098;2023-04-29T04:20:01;100870.09;;;10.27;65.92
76285;BME280;65096;50.998;7.098;2023-04-29T04:22:28;100874.44;;;10.28;65.66
76285;BME280;65096;50.998;7.098;2023-04-29T04:24:55;100883.06;;;10.33;65.38
76285;BME280;65096;50.998;7.098;2023-04-29T04:27:22;100877.06;;;10.32;65.20
76285;BME280;65096;50.998;7.098;2023-04-29T04:29:52;100880.41;;;10.25;65.59
76285;BME280;65096;50.998;7.098;2023-04-29T04:32:20;100888.09;;;10.21;65.80
76285;BME280;65096;50.998;7.098;2023-04-29T04:34:47;100875.94;;;10.08;66.13
76285;BME280;65096;50.998;7.098;2023-04-29T04:37:14;100886.28;;;10.14;66.03
76285;BME280;65096;50.998;7.098;2023-04-29T04:39:41;100898.31;;;10.12;65.69
76285;BME280;65096;50.998;7.098;2023-04-29T04:42:08;100895.78;;;10.15;65.67
76285;BME280;65096;50.998;7.098;2023-04-29T04:44:35;100901.72;;;10.11;66.19
76285;BME280;65096;50.998;7.098;2023-04-29T04:47:01;100903.47;;;10.12;66.19
76285;BME280;65096;50.998;7.098;2023-04-29T04:49:29;100905.91;;;10.03;66.24
76285;BME280;65096;50.998;7.098;2023-04-29T04:51:56;100905.94;;;10.06;65.94
76285;BME280;65096;50.998;7.098;2023-04-29T04:54:23;100906.00;;;10.09;66.22
76285;BME280;65096;50.998;7.098;2023-04-29T04:56:49;100917.81;;;9.93;66.66
76285;BME280;65096;50.998;7.098;2023-04-29T04:59:16;100922.22;;;9.99;66.62
76285;BME280;65096;50.998;7.098;2023-04-29T05:01:43;100920.59;;;10.07;65.97
76285;BME280;65096;50.998;7.098;2023-04-29T05:04:10;100923.16;;;10.07;66.13
76285;BME280;65096;50.998;7.098;2023-04-29T05:06:38;100918.91;;;10.09;66.73
76285;BME280;65096;50.998;7.098;2023-04-29T05:09:04;100927.44;;;10.08;65.99
76285;BME280;65096;50.998;7.098;2023-04-29T05:11:31;100933.47;;;10.07;65.86
76285;BME280;65096;50.998;7.098;2023-04-29T05:13:57;100938.63;;;10.08;66.34
76285;BME280;65096;50.998;7.098;2023-04-29T05:16:24;100935.91;;;9.98;66.71
76285;BME280;65096;50.998;7.098;2023-04-29T05:18:51;100940.97;;;9.89;66.73
76285;BME280;65096;50.998;7.098;2023-04-29T05:21:17;100947.03;;;9.92;66.88
76285;BME280;65096;50.998;7.098;2023-04-29T05:23:45;100947.13;;;10.03;66.00
76285;BME280;65096;50.998;7.098;2023-04-29T05:26:12;100954.06;;;10.07;66.25
76285;BME280;65096;50.998;7.098;2023-04-29T05:28:38;100955.81;;;10.11;66.19
76285;BME280;65096;50.998;7.098;2023-04-29T05:31:05;100954.19;;;10.16;65.64
76285;BME280;65096;50.998;7.098;2023-04-29T05:33:32;100953.25;;;10.11;65.97
76285;BME280;65096;50.998;7.098;2023-04-29T05:35:58;100960.16;;;10.12;66.13
76285;BME280;65096;50.998;7.098;2023-04-29T05:38:25;100961.00;;;10.14;65.84
76285;BME280;65096;50.998;7.098;2023-04-29T05:40:54;100968.81;;;10.17;65.95
76285;BME280;65096;50.998;7.098;2023-04-29T05:43:21;100968.72;;;10.11;65.47
76285;BME280;65096;50.998;7.098;2023-04-29T05:45:48;100968.59;;;10.02;66.86
76285;BME280;65096;50.998;7.098;2023-04-29T05:48:14;100962.44;;;9.89;66.23
76285;BME280;65096;50.998;7.098;2023-04-29T05:50:41;100977.19;;;10.01;66.41
76285;BME280;65096;50.998;7.098;2023-04-29T05:53:08;100988.41;;;10.06;65.55
76285;BME280;65096;50.998;7.098;2023-04-29T05:55:35;100961.50;;;9.84;66.20
76285;BME280;65096;50.998;7.098;2023-04-29T05:58:03;100991.78;;;10.00;66.56
76285;BME280;65096;50.998;7.098;2023-04-29T06:00:30;100985.81;;;10.06;65.97
76285;BME280;65096;50.998;7.098;2023-04-29T06:02:57;100983.25;;;10.06;66.38
76285;BME280;65096;50.998;7.098;2023-04-29T06:05:23;100992.72;;;10.05;66.55
76285;BME280;65096;50.998;7.098;2023-04-29T06:07:50;100997.81;;;10.02;65.92
76285;BME280;65096;50.998;7.098;2023-04-29T06:10:17;100997.75;;;9.98;66.22
76285;BME280;65096;50.998;7.098;2023-04-29T06:12:44;101005.56;;;10.04;66.11
76285;BME280;65096;50.998;7.098;2023-04-29T06:15:12;101007.25;;;10.02;66.23
76285;BME280;65096;50.998;7.098;2023-04-29T06:17:39;101014.06;;;9.98;66.25
76285;BME280;65096;50.998;7.098;2023-04-29T06:20:07;101014.88;;;9.94;66.32
76285;BME280;65096;50.998;7.098;2023-04-29T06:22:33;101015.63;;;9.86;66.83
76285;BME280;65096;50.998;7.098;2023-04-29T06:25:00;101029.38;;;9.88;66.90
76285;BME280;65096;50.998;7.098;2023-04-29T06:27:27;101026.78;;;9.85;67.40
76285;BME280;65096;50.998;7.098;2023-04-29T06:29:53;101031.09;;;9.87;67.09
76285;BME280;65096;50.998;7.098;2023-04-29T06:32:22;101028.56;;;9.90;66.78
76285;BME280;65096;50.998;7.098;2023-04-29T06:34:49;101039.78;;;9.95;66.70
76285;BME280;65096;50.998;7.098;2023-04-29T06:37:15;101039.72;;;9.89;66.47
76285;BME280;65096;50.998;7.098;2023-04-29T06:39:42;101044.88;;;9.91;66.86
76285;BME280;65096;50.998;7.098;2023-04-29T06:42:09;101053.50;;;9.93;66.44
76285;BME280;65096;50.998;7.098;2023-04-29T06:44:35;101056.13;;;9.96;66.64
76285;BME280;65096;50.998;7.098;2023-04-29T06:47:02;101051.91;;;10.01;67.02
76285;BME280;65096;50.998;7.098;2023-04-29T06:49:30;101060.47;;;10.01;66.67
76285;BME280;65096;50.998;7.098;2023-04-29T06:51:57;101063.91;;;10.00;66.97
76285;BME280;65096;50.998;7.098;2023-04-29T06:54:23;101063.94;;;10.03;66.25
76285;BME280;65096;50.998;7.098;2023-04-29T06:56:52;101063.06;;;10.03;66.63
76285;BME280;65096;50.998;7.098;2023-04-29T06:59:18;101072.56;;;10.04;65.99
76285;BME280;65096;50.998;7.098;2023-04-29T07:01:45;101064.81;;;10.02;66.45
76285;BME280;65096;50.998;7.098;2023-04-29T07:04:11;101065.59;;;9.98;66.35
76285;BME280;65096;50.998;7.098;2023-04-29T07:06:39;101071.63;;;9.99;66.57
76285;BME280;65096;50.998;7.098;2023-04-29T07:09:06;101081.00;;;9.94;66.90
76285;BME280;65096;50.998;7.098;2023-04-29T07:11:33;101081.03;;;9.97;66.31
76285;BME280;65096;50.998;7.098;2023-04-29T07:14:00;101083.63;;;9.98;66.64
76285;BME280;65096;50.998;7.098;2023-04-29T07:16:26;101086.22;;;10.00;66.97
76285;BME280;65096;50.998;7.098;2023-04-29T07:18:53;101091.41;;;10.03;66.21
76285;BME280;65096;50.998;7.098;2023-04-29T07:21:20;101098.34;;;10.05;66.22
76285;BME280;65096;50.998;7.098;2023-04-29T07:23:48;101107.75;;;10.03;66.61
76285;BME280;65096;50.998;7.098;2023-04-29T07:26:15;101108.66;;;10.07;66.50
76285;BME280;65096;50.998;7.098;2023-04-29T07:28:43;101113.78;;;10.04;66.43
76285;BME280;65096;50.998;7.098;2023-04-29T07:31:10;101119.81;;;10.06;66.09
76285;BME280;65096;50.998;7.098;2023-04-29T07:33:37;101113.81;;;10.07;66.07
76285;BME280;65096;50.998;7.098;2023-04-29T07:36:04;101115.56;;;10.09;66.13
76285;BME280;65096;50.998;7.098;2023-04-29T07:38:31;101122.47;;;10.10;66.52
76285;BME280;65096;50.998;7.098;2023-04-29T07:40:59;101119.03;;;10.11;66.20
76285;BME280;65096;50.998;7.098;2023-04-29T07:43:27;101116.41;;;10.07;66.26
76285;BME280;65096;50.998;7.098;2023-04-29T07:45:54;101123.25;;;10.06;66.10
76285;BME280;65096;50.998;7.098;2023-04-29T07:48:21;101116.34;;;10.04;66.39
76285;BME280;65096;50.998;7.098;2023-04-29T07:50:47;101131.88;;;10.08;66.03
76285;BME280;65096;50.998;7.098;2023-04-29T07:53:14;101128.47;;;10.11;66.70
76285;BME280;65096;50.998;7.098;2023-04-29T07:55:42;101136.19;;;10.09;66.77
76285;BME280;65096;50.998;7.098;2023-04-29T07:58:10;101137.06;;;10.10;66.51
76285;BME280;65096;50.998;7.098;2023-04-29T08:00:37;101135.41;;;10.13;66.65
76285;BME280;65096;50.998;7.098;2023-04-29T08:03:03;101132.78;;;10.10;66.58
76285;BME280;65096;50.998;7.098;2023-04-29T08:05:30;101137.97;;;10.13;66.78
76285;BME280;65096;50.998;7.098;2023-04-29T08:07:57;101144.03;;;10.17;66.64
76285;BME280;65096;50.998;7.098;2023-04-29T08:10:23;101147.50;;;10.20;66.19
76285;BME280;65096;50.998;7.098;2023-04-29T08:12:51;101143.19;;;10.18;66.95
76285;BME280;65096;50.998;7.098;2023-04-29T08:15:19;101151.81;;;10.20;66.29
76285;BME280;65096;50.998;7.098;2023-04-29T08:17:46;101153.56;;;10.22;66.77
76285;BME280;65096;50.998;7.098;2023-04-29T08:20:13;101148.44;;;10.25;66.87
76285;BME280;65096;50.998;7.098;2023-04-29T08:22:40;101144.22;;;10.29;66.49
76285;BME280;65096;50.998;7.098;2023-04-29T08:25:08;101146.78;;;10.29;67.03
76285;BME280;65096;50.998;7.098;2023-04-29T08:27:34;101152.94;;;10.35;66.42
76285;BME280;65096;50.998;7.098;2023-04-29T08:30:01;101156.38;;;10.36;66.30
76285;BME280;65096;50.998;7.098;2023-04-29T08:32:29;101160.63;;;10.34;66.70
76285;BME280;65096;50.998;7.098;2023-04-29T08:34:56;101158.84;;;10.31;66.75
76285;BME280;65096;50.998;7.098;2023-04-29T08:37:23;101165.81;;;10.35;66.53
76285;BME280;65096;50.998;7.098;2023-04-29T08:39:49;101163.19;;;10.34;66.28
76285;BME280;65096;50.998;7.098;2023-04-29T08:42:20;101169.31;;;10.39;65.97
76285;BME280;65096;50.998;7.098;2023-04-29T08:44:59;101166.69;;;10.36;65.69
76285;BME280;65096;50.998;7.098;2023-04-29T08:47:26;101168.41;;;10.37;65.12
76285;BME280;65096;50.998;7.098;2023-04-29T08:49:54;101174.50;;;10.42;65.04
76285;BME280;65096;50.998;7.098;2023-04-29T08:52:21;101178.81;;;10.43;65.47
76285;BME280;65096;50.998;7.098;2023-04-29T08:54:48;101190.03;;;10.45;65.58
76285;BME280;65096;50.998;7.098;2023-04-29T08:57:14;101194.31;;;10.44;65.71
76285;BME280;65096;50.998;7.098;2023-04-29T08:59:41;101195.16;;;10.43;65.60
76285;BME280;65096;50.998;7.098;2023-04-29T09:02:10;101200.22;;;10.36;64.76
76285;BME280;65096;50.998;7.098;2023-04-29T09:04:46;101204.56;;;10.40;65.45
76285;BME280;65096;50.998;7.098;2023-04-29T09:07:15;101205.44;;;10.40;64.45
76285;BME280;65096;50.998;7.098;2023-04-29T09:09:42;101206.25;;;10.39;64.61
76285;BME280;65096;50.998;7.098;2023-04-29T09:12:09;101200.22;;;10.37;64.65
76285;BME280;65096;50.998;7.098;2023-04-29T09:14:36;101206.13;;;10.32;65.39
76285;BME280;65096;50.998;7.098;2023-04-29T09:17:02;101206.94;;;10.29;65.27
76285;BME280;65096;50.998;7.098;2023-04-29T09:19:30;101215.56;;;10.33;64.70
76285;BME280;65096;50.998;7.098;2023-04-29T09:21:58;101209.66;;;10.35;65.00
76285;BME280;65096;50.998;7.098;2023-04-29T09:24:27;101208.84;;;10.39;65.09
76285;BME280;65096;50.998;7.098;2023-04-29T09:26:55;101200.84;;;10.24;65.16
76285;BME280;65096;50.998;7.098;2023-04-29T09:29:22;101217.41;;;10.38;64.85
76285;BME280;65096;50.998;7.098;2023-04-29T09:31:49;101219.22;;;10.42;64.92
76285;BME280;65096;50.998;7.098;2023-04-29T09:34:29;101217.53;;;10.46;64.61
76285;BME280;65096;50.998;7.098;2023-04-29T09:36:56;101223.47;;;10.39;63.81
76285;BME280;65096;50.998;7.098;2023-04-29T09:39:23;101223.50;;;10.42;64.32
76285;BME280;65096;50.998;7.098;2023-04-29T09:41:59;101226.13;;;10.45;64.77
76285;BME280;65096;50.998;7.098;2023-04-29T09:44:29;101224.38;;;10.42;64.63
76285;BME280;65096;50.998;7.098;2023-04-29T09:46:58;101220.06;;;10.43;64.45
76285;BME280;65096;50.998;7.098;2023-04-29T09:49:27;101225.31;;;10.49;64.54
76285;BME280;65096;50.998;7.098;2023-04-29T09:51:56;101227.81;;;10.44;64.54
76285;BME280;65096;50.998;7.098;2023-04-29T09:54:24;101231.19;;;10.39;64.57
76285;BME280;65096;50.998;7.098;2023-04-29T09:56:53;101234.63;;;10.41;64.60
76285;BME280;65096;50.998;7.098;2023-04-29T09:59:22;101245.03;;;10.44;64.86
76285;BME280;65096;50.998;7.098;2023-04-29T10:01:50;101243.34;;;10.49;64.23
76285;BME280;65096;50.998;7.098;2023-04-29T10:04:18;101247.66;;;10.48;64.71
76285;BME280;65096;50.998;7.098;2023-04-29T10:06:48;101247.47;;;10.38;64.56
76285;BME280;65096;50.998;7.098;2023-04-29T10:09:16;101256.81;;;10.33;64.51
76285;BME280;65096;50.998;7.098;2023-04-29T10:11:44;101257.78;;;10.38;64.69
76285;BME280;65096;50.998;7.098;2023-04-29T10:14:14;101252.78;;;10.45;64.50
76285;BME280;65096;50.998;7.098;2023-04-29T10:16:46;101252.78;;;10.47;64.65
76285;BME280;65096;50.998;7.098;2023-04-29T10:19:25;101262.22;;;10.46;64.27
76285;BME280;65096;50.998;7.098;2023-04-29T10:21:53;101251.03;;;10.46;64.94
76285;BME280;65096;50.998;7.098;2023-04-29T10:24:24;101255.31;;;10.42;65.25
76285;BME280;65096;50.998;7.098;2023-04-29T10:26:53;101261.25;;;10.38;65.00
76285;BME280;65096;50.998;7.098;2023-04-29T10:29:21;101262.16;;;10.42;64.58
76285;BME280;65096;50.998;7.098;2023-04-29T10:31:50;101265.53;;;10.39;65.28
76285;BME280;65096;50.998;7.098;2023-04-29T10:34:17;101264.78;;;10.45;64.87
76285;BME280;65096;50.998;7.098;2023-04-29T10:36:45;101258.72;;;10.41;64.92
76285;BME280;65096;50.998;7.098;2023-04-29T10:39:20;101271.66;;;10.44;65.19
76285;BME280;65096;50.998;7.098;2023-04-29T10:41:50;101241.16;;;10.21;65.24
76285;BME280;65096;50.998;7.098;2023-04-29T10:44:17;101273.28;;;10.39;65.20
76285;BME280;65096;50.998;7.098;2023-04-29T10:46:43;101275.00;;;10.37;65.13
76285;BME280;65096;50.998;7.098;2023-04-29T10:49:11;101275.00;;;10.37;65.03
76285;BME280;65096;50.998;7.098;2023-04-29T10:51:39;101278.53;;;10.44;64.95
76285;BME280;65096;50.998;7.098;2023-04-29T10:54:08;101239.50;;;10.23;64.85
76285;BME280;65096;50.998;7.098;2023-04-29T10:56:42;101279.38;;;10.44;64.77
76285;BME280;65096;50.998;7.098;2023-04-29T10:59:13;101285.38;;;10.42;65.34
76285;BME280;65096;50.998;7.098;2023-04-29T11:01:45;101287.94;;;10.42;65.02
76285;BME280;65096;50.998;7.098;2023-04-29T11:04:14;101286.19;;;10.41;65.42
76285;BME280;65096;50.998;7.098;2023-04-29T11:06:44;101293.88;;;10.38;64.98
76285;BME280;65096;50.998;7.098;2023-04-29T11:09:13;101295.47;;;10.33;64.63
76285;BME280;65096;50.998;7.098;2023-04-29T11:14:31;101297.22;;;10.32;64.98
76285;BME280;65096;50.998;7.098;2023-04-29T11:17:00;101298.88;;;10.29;65.01
76285;BME280;65096;50.998;7.098;2023-04-29T11:19:32;101297.31;;;10.37;65.10
76285;BME280;65096;50.998;7.098;2023-04-29T11:22:13;101302.63;;;10.46;65.13
76285;BME280;65096;50.998;7.098;2023-04-29T11:24:49;101300.06;;;10.47;65.15
76285;BME280;65096;50.998;7.098;2023-04-29T11:27:17;101292.41;;;10.52;64.77
76285;BME280;65096;50.998;7.098;2023-04-29T11:29:44;101291.50;;;10.48;64.87
76285;BME280;65096;50.998;7.098;2023-04-29T11:32:11;101299.28;;;10.53;64.24
76285;BME280;65096;50.998;7.098;2023-04-29T11:34:39;101297.56;;;10.50;64.64
76285;BME280;65096;50.998;7.098;2023-04-29T11:37:06;101299.22;;;10.48;64.88
76285;BME280;65096;50.998;7.098;2023-04-29T11:39:33;101304.47;;;10.54;64.93
76285;BME280;65096;50.998;7.098;2023-04-29T11:42:04;101301.91;;;10.54;64.79
76285;BME280;65096;50.998;7.098;2023-04-29T11:44:33;101302.81;;;10.58;64.88
76285;BME280;65096;50.998;7.098;2023-04-29T11:47:03;101302.88;;;10.61;64.48
76285;BME280;65096;50.998;7.098;2023-04-29T11:49:30;101306.31;;;10.62;63.78
76285;BME280;65096;50.998;7.098;2023-04-29T11:51:58;101302.81;;;10.58;64.38
76285;BME280;65096;50.998;7.098;2023-04-29T11:54:25;101313.16;;;10.59;64.60
76285;BME280;65096;50.998;7.098;2023-04-29T11:56:52;101312.25;;;10.57;64.32
76285;BME280;65096;50.998;7.098;2023-04-29T11:59:20;101319.22;;;10.62;64.23
76285;BME280;65096;50.998;7.098;2023-04-29T12:01:47;101312.22;;;10.54;64.10
76285;BME280;65096;50.998;7.098;2023-04-29T12:04:13;101318.31;;;10.59;63.91
76285;BME280;65096;50.998;7.098;2023-04-29T12:06:40;101315.75;;;10.59;64.20
76285;BME280;65096;50.998;7.098;2023-04-29T12:09:08;101314.13;;;10.66;63.99
76285;BME280;65096;50.998;7.098;2023-04-29T12:11:37;101319.25;;;10.65;64.22
76285;BME280;65096;50.998;7.098;2023-04-29T12:14:04;101317.53;;;10.67;64.41
76285;BME280;65096;50.998;7.098;2023-04-29T12:16:31;101322.69;;;10.65;64.41
76285;BME280;65096;50.998;7.098;2023-04-29T12:18:59;101320.19;;;10.68;64.23
76285;BME280;65096;50.998;7.098;2023-04-29T12:21:25;101320.09;;;10.65;63.49
76285;BME280;65096;50.998;7.098;2023-04-29T12:23:53;101322.78;;;10.70;63.76
76285;BME280;65096;50.998;7.098;2023-04-29T12:26:21;101315.81;;;10.66;64.00
76285;BME280;65096;50.998;7.098;2023-04-29T12:28:53;101318.50;;;10.72;64.55
76285;BME280;65096;50.998;7.098;2023-04-29T12:31:20;101325.41;;;10.73;63.88
76285;BME280;65096;50.998;7.098;2023-04-29T12:33:47;101323.78;;;10.78;64.15
76285;BME280;65096;50.998;7.098;2023-04-29T12:36:17;101322.91;;;10.79;64.50
76285;BME280;65096;50.998;7.098;2023-04-29T12:38:45;101322.94;;;10.82;64.28
76285;BME280;65096;50.998;7.098;2023-04-29T12:41:13;101323.88;;;10.85;64.44
76285;BME280;65096;50.998;7.098;2023-04-29T12:43:42;101319.63;;;10.87;63.67
76285;BME280;65096;50.998;7.098;2023-04-29T12:46:10;101311.97;;;10.95;63.61
76285;BME280;65096;50.998;7.098;2023-04-29T12:48:40;101313.00;;;11.06;63.33
76285;BME280;65096;50.998;7.098;2023-04-29T12:51:08;101290.59;;;11.02;63.36
76285;BME280;65096;50.998;7.098;2023-04-29T12:53:36;101311.47;;;11.20;63.42
76285;BME280;65096;50.998;7.098;2023-04-29T12:56:03;101316.69;;;11.26;63.22